Time;durP1;ratioP1;P1;durP2;ratioP2;P2;SDS_P1;SDS_P2;PMS_P1;PMS_P2;Temp;Humidity;BMP_temperature;BMP_pressure;BME280_temperature;BME280_humidity;BME280_pressure;Samples;Min_cycle;Max_cycle;Signal;HPM_P1;HPM_P2
2022/10/03 05:02:53;;;;;;;11.80;8.02;;;12.00;99.90;;;;;;6169007;23;20346;-77
2022/10/03 05:05:31;;;;;;;13.40;8.02;;;12.00;99.90;;;;;;6225078;23;20001;-77
2022/10/03 05:08:15;;;;;;;13.68;7.55;;;12.00;99.90;;;;;;6222793;23;20016;-77
2022/10/03 05:10:50;;;;;;;14.02;8.20;;;12.00;99.90;;;;;;6224139;23;20312;-77
2022/10/03 05:13:40;;;;;;;14.05;8.38;;;12.00;99.90;;;;;;6224403;23;20186;-78
2022/10/03 05:16:37;;;;;;;14.05;9.15;;;12.00;99.90;;;;;;6224959;23;20011;-77
2022/10/03 05:19:22;;;;;;;13.85;8.80;;;12.10;99.90;;;;;;6198241;23;20008;-76
2022/10/03 05:22:07;;;;;;;18.05;8.93;;;12.10;99.90;;;;;;6223743;23;20063;-77
2022/10/03 05:24:48;;;;;;;13.07;8.70;;;12.10;99.90;;;;;;6224841;23;20003;-77
2022/10/03 05:27:32;;;;;;;16.55;10.10;;;12.10;99.90;;;;;;6225007;23;20055;-76
2022/10/03 05:30:22;;;;;;;16.20;9.30;;;12.10;99.90;;;;;;6224003;23;20001;-77
2022/10/03 05:33:20;;;;;;;16.83;8.93;;;12.10;99.90;;;;;;6224440;23;20083;-78
2022/10/03 05:36:01;;;;;;;16.75;10.23;;;12.10;99.90;;;;;;6223589;23;20008;-79
2022/10/03 05:39:04;;;;;;;15.48;9.02;;;12.10;99.90;;;;;;6224702;23;20332;-80
2022/10/03 05:41:35;;;;;;;11.23;8.48;;;12.00;99.90;;;;;;6223376;23;20340;-77
2022/10/03 05:44:16;;;;;;;11.65;7.97;;;12.00;99.90;;;;;;6224369;23;20005;-79
2022/10/03 05:47:48;;;;;;;13.15;8.70;;;12.00;99.90;;;;;;6224105;23;20001;-77
2022/10/03 05:51:12;;;;;;;17.55;8.90;;;12.10;99.90;;;;;;6132607;23;20307;-77
2022/10/03 05:54:05;;;;;;;17.27;10.13;;;12.10;99.90;;;;;;6132260;23;20292;-79
2022/10/03 05:57:10;;;;;;;18.05;10.18;;;12.10;99.90;;;;;;6108291;23;20013;-78
2022/10/03 05:59:55;;;;;;;17.52;11.07;;;12.10;99.90;;;;;;6132651;23;20013;-77
2022/10/03 06:02:57;;;;;;;19.48;12.23;;;12.10;99.90;;;;;;6146478;23;20060;-78
2022/10/03 06:05:48;;;;;;;31.10;13.13;;;12.20;99.90;;;;;;6229505;23;20009;-75
2022/10/03 06:08:47;;;;;;;19.65;12.45;;;12.20;99.90;;;;;;6224087;23;20001;-77
2022/10/03 06:12:13;;;;;;;21.17;12.63;;;12.20;99.90;;;;;;6247368;23;20063;-77
2022/10/03 06:15:10;;;;;;;19.00;11.98;;;12.10;99.90;;;;;;6132370;23;20045;-76
2022/10/03 06:18:25;;;;;;;22.15;12.82;;;12.10;99.90;;;;;;6166173;23;20001;-77
2022/10/03 06:21:15;;;;;;;26.20;14.00;;;12.10;99.90;;;;;;6223296;23;20004;-77
2022/10/03 06:24:05;;;;;;;23.58;12.73;;;12.10;99.90;;;;;;6223406;23;20000;-77
2022/10/03 06:27:10;;;;;;;20.23;12.20;;;12.10;99.90;;;;;;6222813;23;20012;-77
2022/10/03 06:30:04;;;;;;;19.27;11.25;;;12.20;99.90;;;;;;6223769;23;20011;-78
2022/10/03 06:33:20;;;;;;;19.35;11.35;;;12.30;99.90;;;;;;6224061;23;20008;-75
2022/10/03 06:36:09;;;;;;;17.40;10.43;;;12.30;99.90;;;;;;6223163;23;20004;-78
2022/10/03 06:39:18;;;;;;;14.85;10.23;;;12.20;99.90;;;;;;6223876;23;20032;-77
2022/10/03 06:42:30;;;;;;;16.85;10.45;;;12.30;99.90;;;;;;6224423;23;20001;-79
2022/10/03 06:45:45;;;;;;;18.17;10.98;;;12.30;99.90;;;;;;6217274;23;20019;-79
2022/10/03 06:48:51;;;;;;;17.10;11.32;;;12.40;99.90;;;;;;6223652;23;20008;-77
2022/10/03 06:52:00;;;;;;;19.67;12.02;;;12.40;99.90;;;;;;6223607;23;20293;-76
2022/10/03 06:55:03;;;;;;;19.38;11.38;;;12.40;99.90;;;;;;6219978;23;20164;-77
2022/10/03 06:58:19;;;;;;;17.55;11.38;;;12.50;99.90;;;;;;6223928;23;20000;-77
2022/10/03 07:01:23;;;;;;;19.48;10.90;;;12.50;99.90;;;;;;6223308;23;20023;-79
2022/10/03 07:04:04;;;;;;;17.00;12.02;;;12.50;99.90;;;;;;6223169;23;20016;-77
2022/10/03 07:07:37;;;;;;;17.17;12.30;;;12.60;99.90;;;;;;6222385;23;20016;-78
2022/10/03 07:10:34;;;;;;;19.98;12.32;;;12.50;99.90;;;;;;6223234;23;20012;-80
2022/10/03 07:13:21;;;;;;;20.05;12.40;;;12.60;99.90;;;;;;6196817;23;20004;-77
2022/10/03 07:16:09;;;;;;;21.25;12.20;;;12.60;99.90;;;;;;6224207;23;19996;-76
2022/10/03 07:18:54;;;;;;;;;;;12.60;99.90;;;;;;6224271;23;20286;-78
2022/10/03 07:21:38;;;;;;;24.80;12.23;;;12.60;99.90;;;;;;6223938;23;19907;-79
2022/10/03 07:24:08;;;;;;;17.27;11.23;;;12.60;99.90;;;;;;6222055;23;20015;-76
2022/10/03 07:27:07;;;;;;;17.25;11.73;;;12.60;99.90;;;;;;6223453;23;20119;-78
2022/10/03 07:29:46;;;;;;;21.83;11.52;;;12.70;99.90;;;;;;6197372;23;20061;-78
2022/10/03 07:33:14;;;;;;;18.92;10.88;;;12.60;99.90;;;;;;6197465;23;20004;-80
2022/10/03 07:39:26;;;;;;;17.20;11.25;;;12.70;99.90;;;;;;6102406;23;20022;-76
2022/10/03 07:41:51;;;;;;;19.13;11.32;;;12.80;99.90;;;;;;6224758;23;20012;-78
2022/10/03 07:44:44;;;;;;;21.13;11.02;;;12.90;99.90;;;;;;6223699;23;20001;-76
2022/10/03 07:47:48;;;;;;;15.60;9.32;;;12.90;99.90;;;;;;6223543;23;20058;-76
2022/10/03 07:50:43;;;;;;;16.88;9.77;;;13.10;99.90;;;;;;6223532;23;20170;-80
2022/10/03 07:53:36;;;;;;;14.35;9.30;;;13.30;99.90;;;;;;6222764;23;20055;-77
2022/10/03 07:56:32;;;;;;;17.17;10.00;;;13.50;99.90;;;;;;6223190;23;20553;-76
2022/10/03 07:59:13;;;;;;;14.20;8.95;;;13.60;99.90;;;;;;6196329;23;20054;-77
2022/10/03 08:01:47;;;;;;;16.98;8.57;;;13.70;99.90;;;;;;6200094;23;20012;-76
2022/10/03 08:04:50;;;;;;;14.20;7.68;;;13.70;99.90;;;;;;6253879;23;20185;-77
2022/10/03 08:07:37;;;;;;;15.80;7.22;;;13.70;99.90;;;;;;6228115;23;20019;-76
2022/10/03 08:10:18;;;;;;;18.67;8.57;;;13.70;99.90;;;;;;6227840;23;20091;-75
2022/10/03 08:12:58;;;;;;;16.83;8.23;;;13.70;99.90;;;;;;6229161;23;20063;-77
2022/10/03 08:15:52;;;;;;;16.55;7.53;;;13.80;99.90;;;;;;6253941;23;20050;-77
2022/10/03 08:18:27;;;;;;;14.32;7.43;;;13.90;99.90;;;;;;6228503;23;20008;-77
2022/10/03 08:21:10;;;;;;;12.18;6.97;;;14.00;99.90;;;;;;6253265;23;20027;-77
2022/10/03 08:24:05;;;;;;;14.82;7.00;;;14.10;99.90;;;;;;6253851;23;20004;-78
2022/10/03 08:26:50;;;;;;;13.77;6.57;;;14.20;99.90;;;;;;6227078;23;20234;-78
2022/10/03 08:29:50;;;;;;;11.75;6.47;;;14.20;99.90;;;;;;6202101;23;20008;-78
2022/10/03 08:32:53;;;;;;;12.45;5.97;;;14.20;99.90;;;;;;6251467;23;20008;-77
2022/10/03 08:35:31;;;;;;;11.48;6.45;;;14.30;99.90;;;;;;6253583;23;20190;-77
2022/10/03 08:38:17;;;;;;;10.15;5.20;;;14.40;99.90;;;;;;6253095;23;20062;-79
2022/10/03 08:41:13;;;;;;;9.57;5.78;;;14.50;99.90;;;;;;6253623;23;20103;-76
2022/10/03 08:44:15;;;;;;;9.32;5.30;;;14.50;99.90;;;;;;6253826;23;20024;-78
2022/10/03 08:47:15;;;;;;;8.80;5.18;;;14.50;99.90;;;;;;6252836;23;20257;-77
2022/10/03 08:49:59;;;;;;;9.57;5.20;;;14.70;99.90;;;;;;6227317;23;20015;-77
2022/10/03 08:52:31;;;;;;;12.23;5.50;;;14.90;99.90;;;;;;6254228;23;20060;-78
2022/10/03 08:55:26;;;;;;;11.73;5.38;;;15.10;99.90;;;;;;6253603;23;20011;-77
2022/10/03 08:58:23;;;;;;;9.13;5.10;;;15.10;99.90;;;;;;6226830;23;20008;-76
2022/10/03 09:01:21;;;;;;;11.30;4.40;;;15.30;99.90;;;;;;6253367;23;20004;-76
2022/10/03 09:04:28;;;;;;;10.05;4.38;;;15.30;99.90;;;;;;6217502;23;20013;-77
2022/10/03 09:07:24;;;;;;;9.80;4.20;;;15.20;99.90;;;;;;6222611;23;20336;-77
2022/10/03 09:10:24;;;;;;;8.68;3.63;;;15.20;99.90;;;;;;6222855;23;20001;-74
2022/10/03 09:13:24;;;;;;;11.13;4.80;;;15.10;99.90;;;;;;6223153;23;20027;-75
2022/10/03 09:16:19;;;;;;;10.85;4.00;;;15.10;99.90;;;;;;6220969;23;20290;-76
2022/10/03 09:19:22;;;;;;;10.18;4.57;;;15.10;99.90;;;;;;6223562;23;20063;-74
2022/10/03 09:22:09;;;;;;;9.57;4.10;;;15.00;99.90;;;;;;6223290;23;20027;-75
2022/10/03 09:25:21;;;;;;;9.55;4.60;;;15.10;99.90;;;;;;6223358;23;20144;-77
2022/10/03 09:28:20;;;;;;;10.48;4.93;;;15.10;99.90;;;;;;6221635;23;20078;-79
2022/10/03 09:31:04;;;;;;;12.30;5.65;;;15.10;99.90;;;;;;6221711;23;20012;-79
2022/10/03 09:34:07;;;;;;;11.90;5.55;;;15.20;99.90;;;;;;6221454;23;20263;-76
2022/10/03 09:37:17;;;;;;;12.48;5.40;;;15.30;99.90;;;;;;6198552;23;20305;-76
2022/10/03 09:40:15;;;;;;;12.07;5.32;;;15.50;99.90;;;;;;6188891;23;20063;-75
2022/10/03 09:43:09;;;;;;;8.77;4.93;;;15.90;99.90;;;;;;6188590;23;20013;-77
2022/10/03 09:46:04;;;;;;;9.05;4.82;;;16.30;99.90;;;;;;6222910;23;20089;-74
2022/10/03 09:48:45;;;;;;;10.55;4.30;;;16.70;99.90;;;;;;6222847;23;20000;-75
2022/10/03 09:51:25;;;;;;;7.93;4.00;;;17.00;99.90;;;;;;6222765;23;20001;-76
2022/10/03 09:54:17;;;;;;;9.45;4.43;;;16.90;99.90;;;;;;6222444;23;20030;-76
2022/10/03 09:57:02;;;;;;;12.55;4.40;;;17.10;99.90;;;;;;6221282;23;20001;-78
2022/10/03 09:59:43;;;;;;;17.70;4.38;;;17.20;99.90;;;;;;6223071;23;20334;-79
2022/10/03 10:02:34;;;;;;;7.32;3.58;;;17.50;99.90;;;;;;6195404;23;20465;-76
2022/10/03 10:05:33;;;;;;;9.00;3.63;;;17.60;99.90;;;;;;6220587;23;20163;-78
2022/10/03 10:07:58;;;;;;;;;;;17.40;99.20;;;;;;6223121;23;20186;-78
2022/10/03 10:11:02;;;;;;;6.80;3.05;;;17.10;99.60;;;;;;6222752;23;19919;-76
2022/10/03 10:14:03;;;;;;;7.15;3.60;;;16.80;99.40;;;;;;6195421;23;20222;-75
2022/10/03 10:16:32;;;;;;;8.75;3.40;;;16.70;99.70;;;;;;6222242;23;20024;-76
2022/10/03 10:19:35;;;;;;;6.70;2.95;;;17.10;99.90;;;;;;6221657;23;20016;-76
2022/10/03 10:22:46;;;;;;;7.43;3.20;;;17.30;98.30;;;;;;6221225;23;20096;-76
2022/10/03 10:25:57;;;;;;;9.10;3.13;;;17.20;98.10;;;;;;6221022;23;20024;-76
2022/10/03 10:28:57;;;;;;;5.20;3.10;;;17.20;97.30;;;;;;6220840;23;20009;-77
2022/10/03 10:31:51;;;;;;;6.85;2.72;;;17.40;97.20;;;;;;6222117;23;20072;-77
2022/10/03 10:34:48;;;;;;;7.45;3.00;;;17.60;96.50;;;;;;6223246;23;20180;-76
2022/10/03 10:37:32;;;;;;;11.10;3.28;;;18.00;96.40;;;;;;6245840;23;20063;-77
2022/10/03 10:40:07;;;;;;;5.88;2.50;;;18.40;95.30;;;;;;6245521;23;20350;-77
2022/10/03 10:42:57;;;;;;;7.15;2.58;;;18.90;94.80;;;;;;6220957;23;20009;-75
2022/10/03 10:45:55;;;;;;;6.78;3.10;;;19.00;93.90;;;;;;6221768;23;20028;-75
2022/10/03 10:48:42;;;;;;;6.43;2.60;;;19.30;92.60;;;;;;6221919;23;20000;-77
2022/10/03 10:51:17;;;;;;;5.30;2.42;;;19.30;92.70;;;;;;6220751;23;20048;-76
2022/10/03 10:54:09;;;;;;;5.90;2.40;;;19.50;92.80;;;;;;6222222;23;20024;-77
2022/10/03 10:56:41;;;;;;;8.43;2.72;;;19.20;91.90;;;;;;6223391;23;20008;-77
2022/10/03 10:59:46;;;;;;;6.38;2.80;;;18.60;93.00;;;;;;6245957;23;20011;-78
2022/10/03 11:02:50;;;;;;;5.75;2.53;;;19.60;93.70;;;;;;6230303;23;20502;-77
2022/10/03 11:05:39;;;;;;;6.28;2.80;;;20.80;91.20;;;;;;6226037;23;19996;-78
2022/10/03 11:08:37;;;;;;;7.35;3.15;;;21.90;90.80;;;;;;6224805;23;20147;-78
2022/10/03 11:11:12;;;;;;;5.82;2.83;;;22.50;90.70;;;;;;6225246;23;20008;-78
2022/10/03 11:14:05;;;;;;;8.18;3.45;;;22.90;89.80;;;;;;6252152;23;20004;-78
2022/10/03 11:17:00;;;;;;;6.95;3.00;;;22.10;89.40;;;;;;6251958;23;20008;-77
2022/10/03 11:19:46;;;;;;;7.38;3.13;;;21.40;89.20;;;;;;6252070;23;20000;-78
2022/10/03 11:22:12;;;;;;;11.70;4.32;;;20.70;91.10;;;;;;6251369;23;20031;-78
2022/10/03 11:24:41;;;;;;;9.73;4.00;;;20.10;91.90;;;;;;6251841;23;20004;-79
2022/10/03 11:27:25;;;;;;;9.13;3.55;;;19.80;93.10;;;;;;6251442;23;20039;-77
2022/10/03 11:30:18;;;;;;;8.88;4.05;;;19.60;93.20;;;;;;6252074;23;20051;-78
2022/10/03 11:32:56;;;;;;;6.50;3.45;;;19.20;93.90;;;;;;6252085;23;20008;-78
2022/10/03 11:35:40;;;;;;;7.10;3.13;;;19.60;93.70;;;;;;6226194;23;20004;-78
2022/10/03 11:38:21;;;;;;;7.32;3.00;;;20.80;92.70;;;;;;6251591;23;20000;-80
2022/10/03 11:41:36;;;;;;;6.90;3.00;;;21.30;91.10;;;;;;6251658;23;20047;-80
2022/10/03 11:44:24;;;;;;;7.72;2.90;;;21.10;90.90;;;;;;6227415;23;20050;-79
2022/10/03 11:47:17;;;;;;;5.05;3.00;;;20.90;90.50;;;;;;6227800;23;20013;-79
2022/10/03 11:49:48;;;;;;;6.82;3.03;;;20.90;91.20;;;;;;6254498;23;20012;-78
2022/10/03 11:52:51;;;;;;;8.40;2.55;;;20.80;87.00;;;;;;6253508;23;20389;-79
2022/10/03 11:55:23;;;;;;;5.95;2.33;;;20.80;90.00;;;;;;6253653;23;20099;-78
2022/10/03 11:57:55;;;;;;;6.25;2.30;;;20.60;87.00;;;;;;6254354;23;19996;-78
2022/10/03 12:00:22;;;;;;;7.93;2.55;;;20.30;85.80;;;;;;6254613;23;20020;-78
2022/10/03 12:03:17;;;;;;;5.40;2.27;;;20.60;88.90;;;;;;6253907;23;20200;-79
2022/10/03 12:08:53;;;;;;;4.60;1.77;;;21.80;84.70;;;;;;6254046;23;20211;-79
2022/10/03 12:08:54;;;;;;;5.28;2.00;;;23.90;82.70;;;;;;6254641;23;20232;-83
2022/10/03 12:11:36;;;;;;;6.32;2.25;;;23.70;77.20;;;;;;6228162;23;20000;-82
2022/10/03 12:14:33;;;;;;;6.43;2.00;;;22.50;78.30;;;;;;6254420;23;20019;-80
2022/10/03 12:20:51;;;;;;;7.15;1.70;;;20.40;82.40;;;;;;6227555;23;20000;-84
2022/10/03 12:45:02;;;;;;;5.15;1.60;;;28.70;65.40;;;;;;6236217;23;20004;-85
2022/10/03 12:47:43;;;;;;;5.30;2.00;;;28.20;63.40;;;;;;6203512;23;20007;-80
2022/10/03 12:50:46;;;;;;;5.30;1.75;;;28.50;62.90;;;;;;6255559;23;19996;-85
2022/10/03 13:08:31;;;;;;;5.72;1.83;;;31.00;57.10;;;;;;6225292;23;20061;-86
2022/10/03 13:11:57;;;;;;;5.07;1.90;;;30.00;56.90;;;;;;6202048;23;20287;-84
2022/10/03 13:15:08;;;;;;;4.50;1.60;;;30.90;56.50;;;;;;6199281;23;20012;-84
2022/10/03 13:17:46;;;;;;;7.15;1.70;;;31.50;55.00;;;;;;6198374;23;20068;-85
2022/10/03 13:20:42;;;;;;;5.55;1.55;;;30.40;55.50;;;;;;6201567;23;20092;-85
2022/10/03 13:24:12;;;;;;;6.00;1.88;;;28.40;56.80;;;;;;6191127;23;20042;-81
2022/10/03 13:26:52;;;;;;;7.55;1.95;;;26.80;60.60;;;;;;6229212;23;20056;-84
2022/10/03 13:40:08;;;;;;;5.47;1.48;;;27.60;59.30;;;;;;6129330;23;20033;-84
2022/10/03 13:42:53;;;;;;;5.35;1.55;;;26.90;60.00;;;;;;6162268;23;20064;-85
2022/10/03 13:45:43;;;;;;;4.97;1.65;;;27.30;59.70;;;;;;6136886;23;20060;-84
2022/10/03 13:48:26;;;;;;;5.75;1.70;;;28.80;58.50;;;;;;6161573;23;20002;-86
2022/10/03 13:51:01;;;;;;;5.63;1.60;;;30.00;55.80;;;;;;6137401;23;20009;-84
2022/10/03 13:54:04;;;;;;;5.80;1.92;;;30.10;55.20;;;;;;6161602;23;20016;-82
2022/10/03 13:56:54;;;;;;;8.82;2.40;;;29.00;55.70;;;;;;6136869;23;20012;-86
2022/10/03 13:59:53;;;;;;;4.53;1.35;;;29.50;55.20;;;;;;6136896;23;20199;-85
2022/10/03 14:02:31;;;;;;;5.50;1.75;;;30.00;54.40;;;;;;6136260;23;20088;-86
2022/10/03 14:05:13;;;;;;;5.10;1.42;;;29.40;54.50;;;;;;6136932;23;20188;-84
2022/10/03 14:08:06;;;;;;;4.55;1.20;;;28.30;55.70;;;;;;6136954;23;20239;-83
2022/10/03 14:11:09;;;;;;;5.13;1.20;;;28.00;57.10;;;;;;6220938;23;20064;-83
2022/10/03 14:14:13;;;;;;;3.72;1.20;;;27.90;55.80;;;;;;6197621;23;20000;-85
2022/10/03 14:16:52;;;;;;;5.57;1.52;;;29.40;55.50;;;;;;6198624;23;20005;-84
2022/10/03 14:20:27;;;;;;;;;;;;;;;;;;;;;
2022/10/03 14:24:02;;;;;;;5.30;1.80;;;32.30;51.60;;;;;;6224474;23;20028;-90
2022/10/03 14:26:51;;;;;;;5.68;1.80;;;33.80;49.40;;;;;;6045347;23;20007;-87
2022/10/03 14:30:05;;;;;;;5.80;2.80;;;34.50;49.10;;;;;;6073494;23;20013;-85
2022/10/03 14:32:44;;;;;;;3.40;1.10;;;34.90;49.40;;;;;;6022346;23;20019;-86
2022/10/03 14:35:47;;;;;;;3.67;1.15;;;36.00;46.50;;;;;;6049917;23;20011;-82
2022/10/03 14:38:56;;;;;;;4.18;1.42;;;36.40;45.90;;;;;;6049786;23;20006;-87
2022/10/03 14:41:37;;;;;;;5.00;1.10;;;36.40;46.20;;;;;;6073149;23;20026;-85
2022/10/03 14:45:00;;;;;;;5.90;2.15;;;36.10;46.20;;;;;;6053257;23;20360;-86
2022/10/03 14:48:09;;;;;;;4.50;1.45;;;34.90;49.10;;;;;;6054337;23;20362;-82
2022/10/03 14:50:41;;;;;;;3.65;1.33;;;35.80;46.60;;;;;;6022466;23;20190;-86
2022/10/03 14:53:12;;;;;;;4.68;1.60;;;36.60;48.90;;;;;;6054140;23;20011;-86
2022/10/03 14:56:02;;;;;;;4.13;1.20;;;36.90;44.80;;;;;;6050749;23;20011;-83
2022/10/03 15:10:14;;;;;;;4.65;1.70;;;37.40;46.60;;;;;;6072001;23;20030;-83
2022/10/03 15:13:18;;;;;;;4.80;1.42;;;35.40;47.10;;;;;;6160000;23;20278;-81
2022/10/03 15:15:58;;;;;;;3.33;1.50;;;34.80;45.80;;;;;;6225023;23;20008;-82
2022/10/03 15:18:25;;;;;;;4.57;1.20;;;34.10;48.00;;;;;;6224716;23;20292;-86
2022/10/03 15:20:53;;;;;;;4.40;1.50;;;34.10;46.50;;;;;;6200990;23;20053;-82
2022/10/03 15:23:38;;;;;;;5.00;1.27;;;33.40;50.50;;;;;;6223704;23;20054;-81
2022/10/03 15:26:23;;;;;;;3.90;1.30;;;32.60;48.20;;;;;;6226052;23;20056;-84
2022/10/03 15:29:05;;;;;;;4.50;1.50;;;31.80;51.00;;;;;;6225456;23;20019;-82
2022/10/03 15:31:57;;;;;;;4.68;1.40;;;31.90;49.20;;;;;;6224953;23;20278;-83
2022/10/03 15:34:32;;;;;;;3.72;1.30;;;33.10;48.80;;;;;;6182444;23;20271;-85
2022/10/03 15:37:05;;;;;;;13.30;9.00;;;33.80;47.30;;;;;;6224689;23;20008;-82
2022/10/03 15:43:03;;;;;;;7.82;1.95;;;33.20;48.10;;;;;;6203926;23;20020;-82
2022/10/03 15:45:32;;;;;;;5.78;1.30;;;33.30;47.10;;;;;;6249935;23;20210;-85
2022/10/03 15:48:03;;;;;;;5.70;1.17;;;32.20;48.20;;;;;;6201477;23;20050;-88
2022/10/03 15:50:58;;;;;;;4.07;1.30;;;30.50;51.10;;;;;;6246740;23;20066;-83
2022/10/03 15:53:44;;;;;;;4.82;1.40;;;28.70;51.80;;;;;;6224412;23;20008;-83
2022/10/03 16:00:35;;;;;;;5.18;1.52;;;26.80;54.90;;;;;;6071109;23;20196;-82
2022/10/03 16:03:29;;;;;;;6.40;1.88;;;25.90;59.10;;;;;;6072464;23;20140;-83
2022/10/03 16:06:48;;;;;;;4.57;1.80;;;25.20;57.60;;;;;;5973716;23;1742755;-80
2022/10/03 16:09:52;;;;;;;6.90;1.80;;;24.90;58.90;;;;;;6047823;23;20007;-81
2022/10/03 16:12:38;;;;;;;5.88;1.70;;;25.80;58.60;;;;;;6024874;23;20293;-81
2022/10/03 16:15:41;;;;;;;5.70;1.50;;;26.60;57.60;;;;;;6048294;23;20014;-80
2022/10/03 16:22:37;;;;;;;6.40;1.63;;;26.90;56.60;;;;;;6072042;23;20017;-83
2022/10/03 16:25:54;;;;;;;5.57;1.55;;;25.50;60.00;;;;;;6048716;23;20007;-85
2022/10/03 16:28:50;;;;;;;3.20;1.58;;;24.00;60.70;;;;;;6015232;23;20019;-85
2022/10/03 16:31:24;;;;;;;5.88;1.70;;;22.30;65.70;;;;;;5992974;23;20008;-83
2022/10/03 16:34:18;;;;;;;12.30;10.07;;;21.30;70.00;;;;;;6058924;23;20046;-81
2022/10/03 16:36:46;;;;;;;11.55;7.82;;;20.60;69.90;;;;;;6183170;23;20012;-82
2022/10/03 16:39:41;;;;;;;5.18;1.98;;;19.90;71.10;;;;;;6226823;23;20008;-78
2022/10/03 16:42:25;;;;;;;5.30;2.30;;;19.30;72.30;;;;;;6184360;23;20012;-79
2022/10/03 16:44:54;;;;;;;4.85;2.20;;;18.90;74.30;;;;;;6252559;23;20278;-78
2022/10/03 16:47:32;;;;;;;6.20;2.20;;;18.60;78.40;;;;;;6253569;23;20007;-81
2022/10/03 16:52:51;;;;;;;6.15;1.90;;;18.10;77.10;;;;;;6227745;23;20298;-82
2022/10/03 16:55:42;;;;;;;7.10;2.03;;;17.70;79.70;;;;;;6252032;23;20000;-79
2022/10/03 16:58:08;;;;;;;7.28;3.13;;;17.40;80.80;;;;;;6227201;23;20004;-78
2022/10/03 17:00:55;;;;;;;7.82;3.55;;;17.10;84.20;;;;;;6225970;23;20110;-76
2022/10/03 17:03:25;;;;;;;9.63;4.90;;;17.00;84.90;;;;;;6226264;23;20008;-77
2022/10/03 17:05:54;;;;;;;7.18;3.65;;;17.00;86.80;;;;;;6253415;23;20011;-76
2022/10/03 17:08:24;;;;;;;8.00;3.10;;;16.80;87.00;;;;;;6253173;23;20055;-78
2022/10/03 17:11:03;;;;;;;5.88;2.78;;;16.60;84.80;;;;;;6252546;23;20011;-77
2022/10/03 17:13:57;;;;;;;7.93;3.10;;;16.50;86.10;;;;;;6252774;23;20194;-77
2022/10/03 17:16:36;;;;;;;7.80;3.35;;;16.30;88.10;;;;;;6235516;23;20024;-79
2022/10/03 17:19:07;;;;;;;7.32;3.28;;;16.20;90.00;;;;;;6226542;23;20086;-78
2022/10/03 17:21:37;;;;;;;6.68;3.08;;;16.00;88.00;;;;;;6225834;23;20059;-78
2022/10/03 17:24:08;;;;;;;8.90;3.17;;;15.90;90.20;;;;;;6226502;23;20020;-78
2022/10/03 17:26:48;;;;;;;9.90;3.40;;;15.80;91.30;;;;;;6225881;23;20018;-79
2022/10/03 17:29:31;;;;;;;7.72;3.20;;;15.80;91.80;;;;;;6252991;23;20000;-78
2022/10/03 17:32:22;;;;;;;7.05;2.97;;;15.70;91.50;;;;;;6253679;23;20301;-79
2022/10/03 17:35:11;;;;;;;8.70;3.55;;;15.60;91.50;;;;;;6227185;23;20185;-79
2022/10/03 17:38:14;;;;;;;20.55;8.85;;;15.50;91.10;;;;;;6252648;23;20047;-79
2022/10/03 17:40:49;;;;;;;12.82;7.45;;;15.30;92.10;;;;;;6226542;23;20026;-77
2022/10/03 17:43:29;;;;;;;11.85;5.88;;;15.10;92.40;;;;;;6252693;23;20064;-78
2022/10/03 17:46:06;;;;;;;8.27;4.40;;;15.10;93.30;;;;;;6253025;23;20083;-78
2022/10/03 17:48:58;;;;;;;8.82;4.57;;;15.00;93.50;;;;;;6225779;23;20384;-77
2022/10/03 17:51:31;;;;;;;9.32;5.00;;;14.90;94.10;;;;;;6227386;23;20004;-77
2022/10/03 17:54:01;;;;;;;9.07;4.93;;;14.80;94.90;;;;;;6252841;23;20015;-81
2022/10/03 17:56:31;;;;;;;14.95;6.15;;;14.80;96.00;;;;;;6225273;23;20014;-76
2022/10/03 17:59:13;;;;;;;13.93;5.47;;;14.80;95.80;;;;;;6226180;23;20186;-80
2022/10/03 18:01:42;;;;;;;11.38;6.28;;;14.60;96.00;;;;;;6253214;23;20000;-78
2022/10/03 18:04:17;;;;;;;17.00;10.23;;;14.40;96.20;;;;;;6226376;23;20022;-79
2022/10/03 18:07:01;;;;;;;17.20;10.35;;;14.30;95.80;;;;;;6253022;23;20012;-77
2022/10/03 18:09:39;;;;;;;22.08;12.68;;;14.10;96.60;;;;;;6252600;23;20293;-79
2022/10/03 18:12:38;;;;;;;11.93;7.25;;;14.00;97.40;;;;;;6226587;23;20055;-78
2022/10/03 18:15:34;;;;;;;15.68;6.30;;;13.80;98.20;;;;;;6253208;23;20015;-78
2022/10/03 18:18:32;;;;;;;30.20;15.57;;;13.70;98.60;;;;;;6253109;23;20000;-80
2022/10/03 18:21:04;;;;;;;18.13;10.82;;;13.60;99.30;;;;;;6253141;23;20008;-79
2022/10/03 18:24:05;;;;;;;12.95;6.57;;;13.50;99.90;;;;;;6252450;23;20286;-79
2022/10/03 18:26:43;;;;;;;10.63;5.85;;;13.40;99.90;;;;;;6196016;23;20004;-78
2022/10/03 18:29:24;;;;;;;14.90;7.73;;;13.30;99.90;;;;;;6226539;23;20001;-78
2022/10/03 18:32:00;;;;;;;12.23;6.35;;;13.30;99.90;;;;;;6201499;23;20473;-79
2022/10/03 18:34:33;;;;;;;13.15;5.85;;;13.30;99.90;;;;;;6251199;23;20004;-77
2022/10/03 18:37:15;;;;;;;10.68;5.55;;;13.20;99.90;;;;;;6226551;23;20048;-78
2022/10/03 18:39:42;;;;;;;11.52;5.88;;;13.10;99.90;;;;;;6226315;23;20004;-80
2022/10/03 18:42:10;;;;;;;12.57;5.90;;;12.90;99.90;;;;;;6251686;23;20004;-78
2022/10/03 18:44:42;;;;;;;11.68;5.75;;;12.90;99.90;;;;;;6252561;23;20048;-78
2022/10/03 18:47:22;;;;;;;10.07;6.00;;;12.90;99.90;;;;;;6226447;23;20027;-77
2022/10/03 18:50:17;;;;;;;12.93;6.78;;;12.80;99.90;;;;;;6226102;23;20000;-78
2022/10/03 18:52:53;;;;;;;18.55;8.80;;;12.70;99.90;;;;;;6226070;23;20015;-78
2022/10/03 18:55:49;;;;;;;15.23;8.15;;;12.60;99.90;;;;;;6252353;23;20007;-78
2022/10/03 18:58:36;;;;;;;17.38;7.53;;;12.50;99.90;;;;;;6218095;23;20008;-78
2022/10/03 19:01:32;;;;;;;14.00;7.15;;;12.40;99.90;;;;;;6225937;23;20015;-79
2022/10/03 19:04:07;;;;;;;14.93;7.72;;;12.40;99.90;;;;;;6237693;23;20020;-78
2022/10/03 19:06:45;;;;;;;17.35;9.57;;;12.40;99.90;;;;;;6231746;23;20012;-79
2022/10/03 19:09:23;;;;;;;21.05;7.97;;;12.20;99.90;;;;;;6250751;23;20059;-79
2022/10/03 19:12:00;;;;;;;14.55;8.93;;;12.20;99.90;;;;;;6252716;23;20004;-79
2022/10/03 19:15:00;;;;;;;15.13;8.00;;;12.10;99.90;;;;;;6250974;23;20010;-79
2022/10/03 19:17:45;;;;;;;12.50;7.25;;;12.10;99.90;;;;;;6251029;22;20217;-81
2022/10/03 19:20:18;;;;;;;16.17;7.07;;;11.90;99.90;;;;;;6277294;22;20194;-78
2022/10/03 19:23:17;;;;;;;12.32;7.43;;;11.80;99.90;;;;;;6252080;22;20005;-80
2022/10/03 19:26:01;;;;;;;12.23;7.25;;;11.80;99.90;;;;;;6276812;22;20004;-78
2022/10/03 19:28:36;;;;;;;13.52;7.68;;;11.70;99.90;;;;;;6250596;23;20316;-79
2022/10/03 19:31:02;;;;;;;12.25;7.57;;;11.60;99.90;;;;;;6252138;23;20004;-79
2022/10/03 19:33:56;;;;;;;18.30;8.25;;;11.60;99.90;;;;;;6252212;23;20155;-77
2022/10/03 19:36:27;;;;;;;12.88;7.97;;;11.50;99.90;;;;;;6275598;22;20014;-78
2022/10/03 19:39:01;;;;;;;18.95;10.02;;;11.40;99.90;;;;;;6253086;23;20008;-79
2022/10/03 19:41:36;;;;;;;14.60;8.75;;;11.30;99.90;;;;;;6276607;22;20457;-79
2022/10/03 19:44:15;;;;;;;15.27;7.97;;;11.30;99.90;;;;;;6276279;22;20008;-80
2022/10/03 19:46:46;;;;;;;;;;;11.20;99.90;;;;;;6252560;22;20031;-79
2022/10/03 19:49:42;;;;;;;12.82;6.68;;;11.10;99.90;;;;;;6225679;23;19899;-79
2022/10/03 19:52:26;;;;;;;15.45;7.20;;;11.00;99.90;;;;;;6243957;23;20198;-79
2022/10/03 19:54:59;;;;;;;13.40;8.43;;;11.00;99.90;;;;;;6253015;23;20004;-79
2022/10/03 19:57:31;;;;;;;12.07;7.88;;;10.90;99.90;;;;;;6250697;23;20010;-80
2022/10/03 20:00:06;;;;;;;14.77;7.32;;;10.90;99.90;;;;;;6252989;22;20000;-78
2022/10/03 20:02:37;;;;;;;15.20;7.53;;;10.80;99.90;;;;;;6253010;22;20012;-78
2022/10/03 20:05:04;;;;;;;13.00;7.15;;;10.70;99.90;;;;;;6255002;22;20116;-79
2022/10/03 20:07:29;;;;;;;17.77;11.77;;;10.70;99.90;;;;;;6252606;23;20008;-79
2022/10/03 20:09:59;;;;;;;22.02;13.73;;;10.60;99.90;;;;;;6253076;23;20023;-78
2022/10/03 20:12:27;;;;;;;19.92;11.00;;;10.60;99.90;;;;;;6254424;22;20001;-80
2022/10/03 20:15:00;;;;;;;13.25;7.68;;;10.50;99.90;;;;;;6253046;23;20304;-81
2022/10/03 20:17:27;;;;;;;16.30;9.15;;;10.50;99.90;;;;;;6254265;23;20004;-79
2022/10/03 20:20:00;;;;;;;16.85;10.15;;;10.40;99.90;;;;;;6253080;23;20012;-77
2022/10/03 20:22:31;;;;;;;14.18;8.80;;;10.40;99.90;;;;;;6252256;23;20043;-78
2022/10/03 20:24:58;;;;;;;16.73;8.80;;;10.40;99.90;;;;;;6252777;23;20008;-78
2022/10/03 20:27:35;;;;;;;14.75;8.98;;;10.40;99.90;;;;;;6253723;22;20007;-81
2022/10/03 20:30:25;;;;;;;14.55;8.52;;;10.50;99.90;;;;;;6278613;22;20437;-78
2022/10/03 20:32:54;;;;;;;14.98;7.43;;;10.40;99.90;;;;;;6254181;22;20024;-80
2022/10/03 20:35:25;;;;;;;11.25;7.35;;;10.40;99.90;;;;;;6252717;23;20000;-77
2022/10/03 20:38:06;;;;;;;16.98;8.40;;;10.40;99.90;;;;;;6254358;22;20460;-79
2022/10/03 20:40:39;;;;;;;16.90;8.52;;;10.30;99.90;;;;;;6252341;23;20016;-80
2022/10/03 20:43:37;;;;;;;15.45;8.43;;;10.30;99.90;;;;;;6252835;23;20008;-78
2022/10/03 20:46:06;;;;;;;14.18;8.00;;;10.30;99.90;;;;;;6253768;23;20234;-80
2022/10/03 20:48:32;;;;;;;;;;;10.30;99.90;;;;;;6254408;23;20016;-77
2022/10/03 20:51:00;;;;;;;13.23;7.97;;;10.30;99.90;;;;;;6252605;23;19906;-79